sensor_id;sensor_type;location;lat;lon;timestamp;P1;durP1;ratioP1;P2;durP2;ratioP2
78985;SDS011;68384;55.750;48.746;2023-05-07T00:00:31;2.35;;;1.40;;
78985;SDS011;68384;55.750;48.746;2023-05-07T00:01:35;2.20;;;1.23;;
78985;SDS011;68384;55.750;48.746;2023-05-07T00:02:39;4.15;;;1.23;;
78985;SDS011;68384;55.750;48.746;2023-05-07T00:03:43;3.05;;;1.35;;
78985;SDS011;68384;55.750;48.746;2023-05-07T00:04:48;2.95;;;1.10;;
78985;SDS011;68384;55.750;48.746;2023-05-07T00:05:51;2.22;;;1.45;;
78985;SDS011;68384;55.750;48.746;2023-05-07T00:06:56;2.25;;;1.17;;
78985;SDS011;68384;55.750;48.746;2023-05-07T00:07:58;2.13;;;1.13;;
78985;SDS011;68384;55.750;48.746;2023-05-07T00:09:02;3.90;;;1.38;;
78985;SDS011;68384;55.750;48.746;2023-05-07T00:11:10;2.50;;;1.30;;
78985;SDS011;68384;55.750;48.746;2023-05-07T00:12:14;2.88;;;1.40;;
78985;SDS011;68384;55.750;48.746;2023-05-07T00:13:19;3.55;;;1.40;;
78985;SDS011;68384;55.750;48.746;2023-05-07T00:14:22;3.28;;;1.45;;
78985;SDS011;68384;55.750;48.746;2023-05-07T00:16:28;1.95;;;1.42;;
78985;SDS011;68384;55.750;48.746;2023-05-07T00:17:32;2.50;;;1.33;;
78985;SDS011;68384;55.750;48.746;2023-05-07T00:18:36;2.88;;;1.30;;
78985;SDS011;68384;55.750;48.746;2023-05-07T00:19:40;4.25;;;1.80;;
78985;SDS011;68384;55.750;48.746;2023-05-07T00:20:42;2.05;;;1.30;;
78985;SDS011;68384;55.750;48.746;2023-05-07T00:21:46;2.08;;;1.15;;
78985;SDS011;68384;55.750;48.746;2023-05-07T00:22:49;3.65;;;1.40;;
78985;SDS011;68384;55.750;48.746;2023-05-07T00:23:53;1.92;;;1.17;;
78985;SDS011;68384;55.750;48.746;2023-05-07T00:24:56;2.75;;;1.60;;
78985;SDS011;68384;55.750;48.746;2023-05-07T00:26:00;1.85;;;0.98;;
78985;SDS011;68384;55.750;48.746;2023-05-07T00:27:03;2.55;;;1.30;;
78985;SDS011;68384;55.750;48.746;2023-05-07T00:28:07;3.35;;;1.42;;
78985;SDS011;68384;55.750;48.746;2023-05-07T00:29:11;2.00;;;1.13;;
78985;SDS011;68384;55.750;48.746;2023-05-07T00:30:15;2.08;;;1.30;;
78985;SDS011;68384;55.750;48.746;2023-05-07T00:31:18;2.17;;;1.45;;
78985;SDS011;68384;55.750;48.746;2023-05-07T00:32:23;2.67;;;1.30;;
78985;SDS011;68384;55.750;48.746;2023-05-07T00:33:25;2.97;;;1.67;;
78985;SDS011;68384;55.750;48.746;2023-05-07T00:34:29;3.00;;;1.38;;
78985;SDS011;68384;55.750;48.746;2023-05-07T00:35:32;2.05;;;1.20;;
78985;SDS011;68384;55.750;48.746;2023-05-07T00:36:36;4.15;;;1.40;;
78985;SDS011;68384;55.750;48.746;2023-05-07T00:37:39;2.00;;;1.08;;
78985;SDS011;68384;55.750;48.746;2023-05-07T00:38:43;2.28;;;1.15;;
78985;SDS011;68384;55.750;48.746;2023-05-07T00:39:46;2.45;;;1.17;;
78985;SDS011;68384;55.750;48.746;2023-05-07T00:40:50;2.50;;;1.25;;
78985;SDS011;68384;55.750;48.746;2023-05-07T00:41:53;2.47;;;1.17;;
78985;SDS011;68384;55.750;48.746;2023-05-07T00:42:57;2.40;;;1.38;;
78985;SDS011;68384;55.750;48.746;2023-05-07T00:44:01;2.60;;;1.40;;
78985;SDS011;68384;55.750;48.746;2023-05-07T00:45:07;1.70;;;1.00;;
78985;SDS011;68384;55.750;48.746;2023-05-07T00:46:12;3.65;;;1.42;;
78985;SDS011;68384;55.750;48.746;2023-05-07T00:47:18;2.75;;;1.65;;
78985;SDS011;68384;55.750;48.746;2023-05-07T00:48:22;2.00;;;1.27;;
78985;SDS011;68384;55.750;48.746;2023-05-07T00:49:28;2.78;;;1.35;;
78985;SDS011;68384;55.750;48.746;2023-05-07T00:50:37;3.70;;;1.23;;
78985;SDS011;68384;55.750;48.746;2023-05-07T00:51:41;2.90;;;1.35;;
78985;SDS011;68384;55.750;48.746;2023-05-07T00:52:45;3.22;;;1.60;;
78985;SDS011;68384;55.750;48.746;2023-05-07T00:53:48;3.00;;;1.40;;
78985;SDS011;68384;55.750;48.746;2023-05-07T00:54:52;2.47;;;1.40;;
78985;SDS011;68384;55.750;48.746;2023-05-07T00:55:57;3.47;;;1.70;;
78985;SDS011;68384;55.750;48.746;2023-05-07T00:57:02;3.40;;;1.50;;
78985;SDS011;68384;55.750;48.746;2023-05-07T00:58:06;2.83;;;1.30;;
78985;SDS011;68384;55.750;48.746;2023-05-07T00:59:10;2.83;;;1.52;;
78985;SDS011;68384;55.750;48.746;2023-05-07T01:00:15;2.60;;;1.60;;
78985;SDS011;68384;55.750;48.746;2023-05-07T01:01:19;3.70;;;1.60;;
78985;SDS011;68384;55.750;48.746;2023-05-07T01:02:23;2.35;;;1.50;;
78985;SDS011;68384;55.750;48.746;2023-05-07T01:03:27;4.30;;;1.60;;
78985;SDS011;68384;55.750;48.746;2023-05-07T01:04:30;2.40;;;1.20;;
78985;SDS011;68384;55.750;48.746;2023-05-07T01:05:35;3.47;;;1.60;;
78985;SDS011;68384;55.750;48.746;2023-05-07T01:06:39;2.30;;;1.40;;
78985;SDS011;68384;55.750;48.746;2023-05-07T01:07:44;3.95;;;1.67;;
78985;SDS011;68384;55.750;48.746;2023-05-07T01:08:48;3.42;;;1.40;;
78985;SDS011;68384;55.750;48.746;2023-05-07T01:09:54;4.03;;;1.90;;
78985;SDS011;68384;55.750;48.746;2023-05-07T01:10:58;3.30;;;1.48;;
78985;SDS011;68384;55.750;48.746;2023-05-07T01:12:03;4.45;;;1.80;;
78985;SDS011;68384;55.750;48.746;2023-05-07T01:13:07;3.70;;;1.58;;
78985;SDS011;68384;55.750;48.746;2023-05-07T01:14:11;2.55;;;1.55;;
78985;SDS011;68384;55.750;48.746;2023-05-07T01:15:15;2.17;;;1.30;;
78985;SDS011;68384;55.750;48.746;2023-05-07T01:16:20;6.38;;;1.92;;
78985;SDS011;68384;55.750;48.746;2023-05-07T01:17:24;3.25;;;1.40;;
78985;SDS011;68384;55.750;48.746;2023-05-07T01:18:28;2.20;;;1.63;;
78985;SDS011;68384;55.750;48.746;2023-05-07T01:19:32;2.25;;;1.48;;
78985;SDS011;68384;55.750;48.746;2023-05-07T01:20:36;2.50;;;1.30;;
78985;SDS011;68384;55.750;48.746;2023-05-07T01:21:40;2.13;;;1.50;;
78985;SDS011;68384;55.750;48.746;2023-05-07T01:23:55;2.22;;;1.48;;
78985;SDS011;68384;55.750;48.746;2023-05-07T01:25:01;3.20;;;1.35;;
78985;SDS011;68384;55.750;48.746;2023-05-07T01:26:05;1.98;;;1.30;;
78985;SDS011;68384;55.750;48.746;2023-05-07T01:27:10;3.47;;;1.52;;
78985;SDS011;68384;55.750;48.746;2023-05-07T01:28:13;1.90;;;1.30;;
78985;SDS011;68384;55.750;48.746;2023-05-07T01:29:18;5.72;;;1.70;;
78985;SDS011;68384;55.750;48.746;2023-05-07T01:30:22;2.30;;;1.40;;
78985;SDS011;68384;55.750;48.746;2023-05-07T01:31:27;2.60;;;1.60;;
78985;SDS011;68384;55.750;48.746;2023-05-07T01:32:32;2.85;;;1.45;;
78985;SDS011;68384;55.750;48.746;2023-05-07T01:33:40;1.80;;;1.13;;
78985;SDS011;68384;55.750;48.746;2023-05-07T01:34:44;2.25;;;1.50;;
78985;SDS011;68384;55.750;48.746;2023-05-07T01:35:51;4.57;;;1.30;;
78985;SDS011;68384;55.750;48.746;2023-05-07T01:36:55;2.10;;;1.27;;
78985;SDS011;68384;55.750;48.746;2023-05-07T01:38:03;4.75;;;1.58;;
78985;SDS011;68384;55.750;48.746;2023-05-07T01:39:07;2.03;;;1.30;;
78985;SDS011;68384;55.750;48.746;2023-05-07T01:40:13;2.53;;;1.40;;
78985;SDS011;68384;55.750;48.746;2023-05-07T01:41:16;2.15;;;1.42;;
78985;SDS011;68384;55.750;48.746;2023-05-07T01:42:21;2.00;;;1.30;;
78985;SDS011;68384;55.750;48.746;2023-05-07T01:43:24;4.95;;;1.75;;
78985;SDS011;68384;55.750;48.746;2023-05-07T01:44:28;3.53;;;1.50;;
78985;SDS011;68384;55.750;48.746;2023-05-07T01:45:32;4.50;;;1.52;;
78985;SDS011;68384;55.750;48.746;2023-05-07T01:46:38;3.70;;;2.13;;
78985;SDS011;68384;55.750;48.746;2023-05-07T01:47:41;6.00;;;1.60;;
78985;SDS011;68384;55.750;48.746;2023-05-07T01:48:46;2.40;;;1.38;;
78985;SDS011;68384;55.750;48.746;2023-05-07T01:49:50;3.33;;;1.70;;
78985;SDS011;68384;55.750;48.746;2023-05-07T01:50:54;3.03;;;1.77;;
78985;SDS011;68384;55.750;48.746;2023-05-07T01:51:58;4.00;;;2.05;;
78985;SDS011;68384;55.750;48.746;2023-05-07T01:53:04;2.40;;;1.50;;
78985;SDS011;68384;55.750;48.746;2023-05-07T01:54:07;3.13;;;1.73;;
78985;SDS011;68384;55.750;48.746;2023-05-07T01:55:11;2.25;;;1.55;;
78985;SDS011;68384;55.750;48.746;2023-05-07T01:56:14;3.08;;;1.80;;
78985;SDS011;68384;55.750;48.746;2023-05-07T01:57:18;3.17;;;1.85;;
78985;SDS011;68384;55.750;48.746;2023-05-07T01:58:21;2.85;;;1.63;;
78985;SDS011;68384;55.750;48.746;2023-05-07T01:59:25;3.25;;;1.83;;
78985;SDS011;68384;55.750;48.746;2023-05-07T02:00:28;3.03;;;1.73;;
78985;SDS011;68384;55.750;48.746;2023-05-07T02:01:32;4.20;;;2.03;;
78985;SDS011;68384;55.750;48.746;2023-05-07T02:02:35;4.72;;;3.20;;
78985;SDS011;68384;55.750;48.746;2023-05-07T02:03:40;6.15;;;2.33;;
78985;SDS011;68384;55.750;48.746;2023-05-07T02:04:51;3.78;;;1.88;;
78985;SDS011;68384;55.750;48.746;2023-05-07T02:05:56;2.95;;;1.92;;
78985;SDS011;68384;55.750;48.746;2023-05-07T02:07:11;6.20;;;2.10;;
78985;SDS011;68384;55.750;48.746;2023-05-07T02:08:17;5.75;;;2.60;;
78985;SDS011;68384;55.750;48.746;2023-05-07T02:09:20;7.22;;;2.72;;
78985;SDS011;68384;55.750;48.746;2023-05-07T02:10:25;7.38;;;2.80;;
78985;SDS011;68384;55.750;48.746;2023-05-07T02:11:28;7.70;;;2.97;;
78985;SDS011;68384;55.750;48.746;2023-05-07T02:12:32;6.88;;;3.20;;
78985;SDS011;68384;55.750;48.746;2023-05-07T02:13:36;8.00;;;3.45;;
78985;SDS011;68384;55.750;48.746;2023-05-07T02:14:41;8.20;;;3.17;;
78985;SDS011;68384;55.750;48.746;2023-05-07T02:15:45;11.00;;;3.97;;
78985;SDS011;68384;55.750;48.746;2023-05-07T02:16:53;10.05;;;3.42;;
78985;SDS011;68384;55.750;48.746;2023-05-07T02:17:59;6.53;;;2.70;;
78985;SDS011;68384;55.750;48.746;2023-05-07T02:19:06;7.32;;;3.03;;
78985;SDS011;68384;55.750;48.746;2023-05-07T02:20:10;8.43;;;3.35;;
78985;SDS011;68384;55.750;48.746;2023-05-07T02:21:36;9.02;;;3.60;;
78985;SDS011;68384;55.750;48.746;2023-05-07T02:22:40;9.45;;;3.42;;
78985;SDS011;68384;55.750;48.746;2023-05-07T02:23:45;8.13;;;3.30;;
78985;SDS011;68384;55.750;48.746;2023-05-07T02:24:49;11.93;;;3.38;;
78985;SDS011;68384;55.750;48.746;2023-05-07T02:25:52;10.55;;;3.75;;
78985;SDS011;68384;55.750;48.746;2023-05-07T02:26:55;11.73;;;3.60;;
78985;SDS011;68384;55.750;48.746;2023-05-07T02:27:59;7.57;;;2.90;;
78985;SDS011;68384;55.750;48.746;2023-05-07T02:29:18;7.38;;;3.20;;
78985;SDS011;68384;55.750;48.746;2023-05-07T02:30:23;7.63;;;3.28;;
78985;SDS011;68384;55.750;48.746;2023-05-07T02:31:29;5.60;;;2.50;;
78985;SDS011;68384;55.750;48.746;2023-05-07T02:32:33;4.55;;;2.72;;
78985;SDS011;68384;55.750;48.746;2023-05-07T02:33:36;5.97;;;2.63;;
78985;SDS011;68384;55.750;48.746;2023-05-07T02:34:42;5.20;;;2.58;;
78985;SDS011;68384;55.750;48.746;2023-05-07T02:35:45;4.38;;;2.10;;
78985;SDS011;68384;55.750;48.746;2023-05-07T02:36:50;6.40;;;2.42;;
78985;SDS011;68384;55.750;48.746;2023-05-07T02:37:56;4.57;;;2.10;;
78985;SDS011;68384;55.750;48.746;2023-05-07T02:39:02;3.80;;;2.00;;
78985;SDS011;68384;55.750;48.746;2023-05-07T02:40:07;3.47;;;1.92;;
78985;SDS011;68384;55.750;48.746;2023-05-07T02:41:12;3.78;;;2.10;;
78985;SDS011;68384;55.750;48.746;2023-05-07T02:42:15;7.22;;;2.75;;
78985;SDS011;68384;55.750;48.746;2023-05-07T02:43:19;4.63;;;2.05;;
78985;SDS011;68384;55.750;48.746;2023-05-07T02:44:23;3.35;;;2.25;;
78985;SDS011;68384;55.750;48.746;2023-05-07T02:45:27;6.13;;;2.28;;
78985;SDS011;68384;55.750;48.746;2023-05-07T02:46:30;6.97;;;2.67;;
78985;SDS011;68384;55.750;48.746;2023-05-07T02:47:38;4.05;;;2.22;;
78985;SDS011;68384;55.750;48.746;2023-05-07T02:48:41;4.80;;;2.67;;
78985;SDS011;68384;55.750;48.746;2023-05-07T02:49:45;4.35;;;2.03;;
78985;SDS011;68384;55.750;48.746;2023-05-07T02:50:48;4.32;;;2.35;;
78985;SDS011;68384;55.750;48.746;2023-05-07T02:51:52;6.85;;;2.40;;
78985;SDS011;68384;55.750;48.746;2023-05-07T02:52:57;6.00;;;2.38;;
78985;SDS011;68384;55.750;48.746;2023-05-07T02:54:03;6.88;;;3.25;;
78985;SDS011;68384;55.750;48.746;2023-05-07T02:55:07;5.90;;;2.45;;
78985;SDS011;68384;55.750;48.746;2023-05-07T02:56:11;5.80;;;2.65;;
78985;SDS011;68384;55.750;48.746;2023-05-07T02:57:14;6.18;;;2.55;;
78985;SDS011;68384;55.750;48.746;2023-05-07T02:58:18;5.95;;;2.13;;
78985;SDS011;68384;55.750;48.746;2023-05-07T02:59:22;5.30;;;2.30;;
78985;SDS011;68384;55.750;48.746;2023-05-07T03:00:27;4.75;;;2.05;;
78985;SDS011;68384;55.750;48.746;2023-05-07T03:01:41;4.70;;;2.50;;
78985;SDS011;68384;55.750;48.746;2023-05-07T03:02:47;4.90;;;2.20;;
78985;SDS011;68384;55.750;48.746;2023-05-07T03:03:50;6.05;;;2.55;;
78985;SDS011;68384;55.750;48.746;2023-05-07T03:04:55;7.25;;;2.92;;
78985;SDS011;68384;55.750;48.746;2023-05-07T03:05:58;4.95;;;2.50;;
78985;SDS011;68384;55.750;48.746;2023-05-07T03:07:02;6.93;;;2.90;;
78985;SDS011;68384;55.750;48.746;2023-05-07T03:08:04;4.25;;;1.98;;
78985;SDS011;68384;55.750;48.746;2023-05-07T03:09:10;4.55;;;2.17;;
78985;SDS011;68384;55.750;48.746;2023-05-07T03:10:13;7.03;;;2.63;;
78985;SDS011;68384;55.750;48.746;2023-05-07T03:11:18;4.72;;;1.98;;
78985;SDS011;68384;55.750;48.746;2023-05-07T03:12:21;5.07;;;2.20;;
78985;SDS011;68384;55.750;48.746;2023-05-07T03:13:25;5.80;;;2.30;;
78985;SDS011;68384;55.750;48.746;2023-05-07T03:14:28;7.45;;;2.83;;
78985;SDS011;68384;55.750;48.746;2023-05-07T03:15:32;6.63;;;2.55;;
78985;SDS011;68384;55.750;48.746;2023-05-07T03:16:35;4.63;;;2.38;;
78985;SDS011;68384;55.750;48.746;2023-05-07T03:17:39;6.80;;;3.05;;
78985;SDS011;68384;55.750;48.746;2023-05-07T03:18:43;6.35;;;2.35;;
78985;SDS011;68384;55.750;48.746;2023-05-07T03:19:47;7.13;;;2.85;;
78985;SDS011;68384;55.750;48.746;2023-05-07T03:20:51;6.47;;;3.00;;
78985;SDS011;68384;55.750;48.746;2023-05-07T03:21:55;7.40;;;2.50;;
78985;SDS011;68384;55.750;48.746;2023-05-07T03:22:58;4.93;;;2.60;;
78985;SDS011;68384;55.750;48.746;2023-05-07T03:26:10;5.40;;;2.58;;
78985;SDS011;68384;55.750;48.746;2023-05-07T03:27:13;6.25;;;2.70;;
78985;SDS011;68384;55.750;48.746;2023-05-07T03:28:18;5.53;;;2.08;;
78985;SDS011;68384;55.750;48.746;2023-05-07T03:29:26;6.97;;;2.50;;
78985;SDS011;68384;55.750;48.746;2023-05-07T03:32:36;3.97;;;2.05;;
78985;SDS011;68384;55.750;48.746;2023-05-07T03:33:50;6.35;;;2.17;;
78985;SDS011;68384;55.750;48.746;2023-05-07T03:34:57;4.68;;;1.95;;
78985;SDS011;68384;55.750;48.746;2023-05-07T03:36:00;4.90;;;2.30;;
78985;SDS011;68384;55.750;48.746;2023-05-07T03:37:04;3.65;;;2.00;;
78985;SDS011;68384;55.750;48.746;2023-05-07T03:38:09;4.03;;;2.28;;
78985;SDS011;68384;55.750;48.746;2023-05-07T03:39:12;4.25;;;2.15;;
78985;SDS011;68384;55.750;48.746;2023-05-07T03:40:18;6.68;;;2.10;;
78985;SDS011;68384;55.750;48.746;2023-05-07T03:41:25;4.97;;;2.03;;
78985;SDS011;68384;55.750;48.746;2023-05-07T03:42:31;3.70;;;2.33;;
78985;SDS011;68384;55.750;48.746;2023-05-07T03:43:34;4.65;;;2.25;;
78985;SDS011;68384;55.750;48.746;2023-05-07T03:44:42;4.80;;;2.33;;
78985;SDS011;68384;55.750;48.746;2023-05-07T03:45:45;4.20;;;2.38;;
78985;SDS011;68384;55.750;48.746;2023-05-07T03:46:57;5.72;;;3.35;;
78985;SDS011;68384;55.750;48.746;2023-05-07T03:48:00;3.90;;;1.58;;
78985;SDS011;68384;55.750;48.746;2023-05-07T03:49:04;3.70;;;2.00;;
78985;SDS011;68384;55.750;48.746;2023-05-07T03:50:08;4.25;;;2.30;;
78985;SDS011;68384;55.750;48.746;2023-05-07T03:51:13;4.53;;;2.08;;
78985;SDS011;68384;55.750;48.746;2023-05-07T03:52:16;5.03;;;2.38;;
78985;SDS011;68384;55.750;48.746;2023-05-07T03:53:24;6.78;;;2.53;;
78985;SDS011;68384;55.750;48.746;2023-05-07T03:54:27;5.00;;;2.75;;
78985;SDS011;68384;55.750;48.746;2023-05-07T03:55:32;4.68;;;2.35;;
78985;SDS011;68384;55.750;48.746;2023-05-07T03:56:35;5.82;;;2.45;;
78985;SDS011;68384;55.750;48.746;2023-05-07T03:57:39;5.80;;;2.42;;
78985;SDS011;68384;55.750;48.746;2023-05-07T03:58:42;7.22;;;2.55;;
78985;SDS011;68384;55.750;48.746;2023-05-07T03:59:46;4.82;;;2.05;;
78985;SDS011;68384;55.750;48.746;2023-05-07T04:00:49;5.10;;;2.22;;
78985;SDS011;68384;55.750;48.746;2023-05-07T04:02:00;6.10;;;2.45;;
78985;SDS011;68384;55.750;48.746;2023-05-07T04:03:07;5.57;;;2.50;;
78985;SDS011;68384;55.750;48.746;2023-05-07T04:04:12;4.72;;;2.53;;
78985;SDS011;68384;55.750;48.746;2023-05-07T04:05:15;6.25;;;2.42;;
78985;SDS011;68384;55.750;48.746;2023-05-07T04:06:22;5.43;;;2.58;;
78985;SDS011;68384;55.750;48.746;2023-05-07T04:07:25;3.50;;;2.08;;
78985;SDS011;68384;55.750;48.746;2023-05-07T04:08:29;5.93;;;2.47;;
78985;SDS011;68384;55.750;48.746;2023-05-07T04:09:32;4.90;;;2.22;;
78985;SDS011;68384;55.750;48.746;2023-05-07T04:10:38;7.00;;;2.03;;
78985;SDS011;68384;55.750;48.746;2023-05-07T04:11:44;3.13;;;2.05;;
78985;SDS011;68384;55.750;48.746;2023-05-07T04:12:49;4.03;;;1.77;;
78985;SDS011;68384;55.750;48.746;2023-05-07T04:13:56;3.92;;;2.33;;
78985;SDS011;68384;55.750;48.746;2023-05-07T04:15:00;4.57;;;1.90;;
78985;SDS011;68384;55.750;48.746;2023-05-07T04:16:03;4.05;;;1.80;;
78985;SDS011;68384;55.750;48.746;2023-05-07T04:17:11;3.05;;;1.70;;
78985;SDS011;68384;55.750;48.746;2023-05-07T04:18:14;2.95;;;1.77;;
78985;SDS011;68384;55.750;48.746;2023-05-07T04:19:20;3.63;;;2.00;;
78985;SDS011;68384;55.750;48.746;2023-05-07T04:20:26;2.88;;;1.70;;
78985;SDS011;68384;55.750;48.746;2023-05-07T04:21:35;7.90;;;1.85;;
78985;SDS011;68384;55.750;48.746;2023-05-07T04:23:42;4.10;;;1.50;;
78985;SDS011;68384;55.750;48.746;2023-05-07T04:24:47;2.58;;;1.73;;
78985;SDS011;68384;55.750;48.746;2023-05-07T04:25:51;2.28;;;1.63;;
78985;SDS011;68384;55.750;48.746;2023-05-07T04:27:03;2.40;;;1.40;;
78985;SDS011;68384;55.750;48.746;2023-05-07T04:28:06;2.53;;;1.65;;
78985;SDS011;68384;55.750;48.746;2023-05-07T04:29:11;2.90;;;1.83;;
78985;SDS011;68384;55.750;48.746;2023-05-07T04:30:14;3.15;;;1.90;;
78985;SDS011;68384;55.750;48.746;2023-05-07T04:31:18;3.28;;;1.90;;
78985;SDS011;68384;55.750;48.746;2023-05-07T04:32:24;2.53;;;1.48;;
78985;SDS011;68384;55.750;48.746;2023-05-07T04:33:28;4.35;;;1.67;;
78985;SDS011;68384;55.750;48.746;2023-05-07T04:35:36;3.15;;;1.55;;
78985;SDS011;68384;55.750;48.746;2023-05-07T04:37:47;2.75;;;1.30;;
78985;SDS011;68384;55.750;48.746;2023-05-07T04:38:50;2.60;;;1.60;;
78985;SDS011;68384;55.750;48.746;2023-05-07T04:39:54;3.58;;;1.80;;
78985;SDS011;68384;55.750;48.746;2023-05-07T04:41:02;4.57;;;2.00;;
78985;SDS011;68384;55.750;48.746;2023-05-07T04:42:14;2.85;;;1.70;;
78985;SDS011;68384;55.750;48.746;2023-05-07T04:43:18;4.57;;;2.45;;
78985;SDS011;68384;55.750;48.746;2023-05-07T04:44:24;2.92;;;1.60;;
78985;SDS011;68384;55.750;48.746;2023-05-07T04:45:29;3.88;;;1.90;;
78985;SDS011;68384;55.750;48.746;2023-05-07T04:46:32;3.42;;;1.92;;
78985;SDS011;68384;55.750;48.746;2023-05-07T04:47:37;3.03;;;1.63;;
78985;SDS011;68384;55.750;48.746;2023-05-07T04:48:40;4.25;;;2.28;;
78985;SDS011;68384;55.750;48.746;2023-05-07T04:49:45;2.17;;;1.40;;
78985;SDS011;68384;55.750;48.746;2023-05-07T04:50:48;2.55;;;1.65;;
78985;SDS011;68384;55.750;48.746;2023-05-07T04:51:54;3.45;;;1.65;;
78985;SDS011;68384;55.750;48.746;2023-05-07T04:52:58;3.70;;;1.52;;
78985;SDS011;68384;55.750;48.746;2023-05-07T04:54:02;3.53;;;1.60;;
78985;SDS011;68384;55.750;48.746;2023-05-07T04:55:06;2.80;;;1.80;;
78985;SDS011;68384;55.750;48.746;2023-05-07T04:56:14;2.75;;;1.80;;
78985;SDS011;68384;55.750;48.746;2023-05-07T04:57:19;2.35;;;1.48;;
78985;SDS011;68384;55.750;48.746;2023-05-07T04:58:23;3.88;;;1.98;;
78985;SDS011;68384;55.750;48.746;2023-05-07T05:00:30;2.55;;;1.38;;
78985;SDS011;68384;55.750;48.746;2023-05-07T05:01:34;3.13;;;1.90;;
78985;SDS011;68384;55.750;48.746;2023-05-07T05:02:39;2.38;;;1.77;;
78985;SDS011;68384;55.750;48.746;2023-05-07T05:03:42;3.00;;;1.83;;
78985;SDS011;68384;55.750;48.746;2023-05-07T05:04:46;3.13;;;1.70;;
78985;SDS011;68384;55.750;48.746;2023-05-07T05:05:49;2.40;;;1.40;;
78985;SDS011;68384;55.750;48.746;2023-05-07T05:06:57;2.92;;;1.40;;
78985;SDS011;68384;55.750;48.746;2023-05-07T05:08:00;2.30;;;1.65;;
78985;SDS011;68384;55.750;48.746;2023-05-07T05:09:04;4.30;;;1.83;;
78985;SDS011;68384;55.750;48.746;2023-05-07T05:11:15;1.88;;;1.20;;
78985;SDS011;68384;55.750;48.746;2023-05-07T05:12:18;5.65;;;1.48;;
78985;SDS011;68384;55.750;48.746;2023-05-07T05:13:23;3.13;;;1.52;;
78985;SDS011;68384;55.750;48.746;2023-05-07T05:14:27;2.38;;;1.70;;
78985;SDS011;68384;55.750;48.746;2023-05-07T05:15:30;3.53;;;1.50;;
78985;SDS011;68384;55.750;48.746;2023-05-07T05:16:36;2.45;;;1.60;;
78985;SDS011;68384;55.750;48.746;2023-05-07T05:17:40;3.20;;;1.60;;
78985;SDS011;68384;55.750;48.746;2023-05-07T05:18:42;2.15;;;1.20;;
78985;SDS011;68384;55.750;48.746;2023-05-07T05:19:50;3.03;;;1.60;;
78985;SDS011;68384;55.750;48.746;2023-05-07T05:20:53;3.33;;;1.73;;
78985;SDS011;68384;55.750;48.746;2023-05-07T05:21:57;2.83;;;1.52;;
78985;SDS011;68384;55.750;48.746;2023-05-07T05:23:01;4.38;;;1.63;;
78985;SDS011;68384;55.750;48.746;2023-05-07T05:24:05;2.05;;;1.33;;
78985;SDS011;68384;55.750;48.746;2023-05-07T05:25:08;1.90;;;1.30;;
78985;SDS011;68384;55.750;48.746;2023-05-07T05:26:12;2.22;;;1.48;;
78985;SDS011;68384;55.750;48.746;2023-05-07T05:27:17;2.47;;;1.73;;
78985;SDS011;68384;55.750;48.746;2023-05-07T05:28:21;2.38;;;1.52;;
78985;SDS011;68384;55.750;48.746;2023-05-07T05:29:23;3.25;;;1.90;;
78985;SDS011;68384;55.750;48.746;2023-05-07T05:30:28;2.35;;;1.70;;
78985;SDS011;68384;55.750;48.746;2023-05-07T05:31:30;5.95;;;2.00;;
78985;SDS011;68384;55.750;48.746;2023-05-07T05:32:35;3.45;;;1.60;;
78985;SDS011;68384;55.750;48.746;2023-05-07T05:34:43;4.38;;;1.65;;
78985;SDS011;68384;55.750;48.746;2023-05-07T05:35:46;2.83;;;1.33;;
78985;SDS011;68384;55.750;48.746;2023-05-07T05:36:50;2.33;;;1.52;;
78985;SDS011;68384;55.750;48.746;2023-05-07T05:37:54;3.83;;;1.80;;
78985;SDS011;68384;55.750;48.746;2023-05-07T05:38:57;3.28;;;1.70;;
78985;SDS011;68384;55.750;48.746;2023-05-07T05:40:03;4.88;;;1.98;;
78985;SDS011;68384;55.750;48.746;2023-05-07T05:42:10;3.08;;;1.63;;
78985;SDS011;68384;55.750;48.746;2023-05-07T05:43:15;2.50;;;1.60;;
78985;SDS011;68384;55.750;48.746;2023-05-07T05:44:18;3.08;;;1.30;;
78985;SDS011;68384;55.750;48.746;2023-05-07T05:45:22;2.70;;;1.77;;
78985;SDS011;68384;55.750;48.746;2023-05-07T05:46:26;4.90;;;1.80;;
78985;SDS011;68384;55.750;48.746;2023-05-07T05:47:30;4.22;;;1.75;;
78985;SDS011;68384;55.750;48.746;2023-05-07T05:48:34;2.50;;;1.60;;
78985;SDS011;68384;55.750;48.746;2023-05-07T05:49:38;2.92;;;1.77;;
78985;SDS011;68384;55.750;48.746;2023-05-07T05:50:43;3.15;;;1.90;;
78985;SDS011;68384;55.750;48.746;2023-05-07T05:51:46;4.53;;;1.80;;
78985;SDS011;68384;55.750;48.746;2023-05-07T05:52:50;2.88;;;2.05;;
78985;SDS011;68384;55.750;48.746;2023-05-07T05:53:54;3.22;;;2.03;;
78985;SDS011;68384;55.750;48.746;2023-05-07T05:54:58;3.88;;;1.60;;
78985;SDS011;68384;55.750;48.746;2023-05-07T05:56:05;3.10;;;1.80;;
78985;SDS011;68384;55.750;48.746;2023-05-07T05:57:11;3.30;;;1.50;;
78985;SDS011;68384;55.750;48.746;2023-05-07T05:58:15;2.63;;;1.33;;
78985;SDS011;68384;55.750;48.746;2023-05-07T05:59:25;3.38;;;2.22;;
78985;SDS011;68384;55.750;48.746;2023-05-07T06:00:29;4.82;;;1.50;;
78985;SDS011;68384;55.750;48.746;2023-05-07T06:01:37;3.33;;;1.67;;
78985;SDS011;68384;55.750;48.746;2023-05-07T06:02:41;2.83;;;1.80;;
78985;SDS011;68384;55.750;48.746;2023-05-07T06:03:48;2.53;;;1.60;;
78985;SDS011;68384;55.750;48.746;2023-05-07T06:04:52;2.90;;;1.75;;
78985;SDS011;68384;55.750;48.746;2023-05-07T06:05:57;3.03;;;1.83;;
78985;SDS011;68384;55.750;48.746;2023-05-07T06:07:00;4.65;;;1.60;;
78985;SDS011;68384;55.750;48.746;2023-05-07T06:08:04;2.75;;;1.90;;
78985;SDS011;68384;55.750;48.746;2023-05-07T06:09:09;2.83;;;1.88;;
78985;SDS011;68384;55.750;48.746;2023-05-07T06:10:16;3.17;;;1.98;;
78985;SDS011;68384;55.750;48.746;2023-05-07T06:11:21;2.85;;;1.65;;
78985;SDS011;68384;55.750;48.746;2023-05-07T06:12:24;7.03;;;2.58;;
78985;SDS011;68384;55.750;48.746;2023-05-07T06:13:30;5.05;;;2.20;;
78985;SDS011;68384;55.750;48.746;2023-05-07T06:14:32;4.82;;;2.45;;
78985;SDS011;68384;55.750;48.746;2023-05-07T06:15:36;3.70;;;2.20;;
78985;SDS011;68384;55.750;48.746;2023-05-07T06:16:43;3.25;;;1.80;;
78985;SDS011;68384;55.750;48.746;2023-05-07T06:17:47;6.53;;;1.95;;
78985;SDS011;68384;55.750;48.746;2023-05-07T06:18:51;3.55;;;1.80;;
78985;SDS011;68384;55.750;48.746;2023-05-07T06:19:55;2.35;;;1.75;;
78985;SDS011;68384;55.750;48.746;2023-05-07T06:20:58;3.30;;;1.70;;
78985;SDS011;68384;55.750;48.746;2023-05-07T06:22:05;2.40;;;1.70;;
78985;SDS011;68384;55.750;48.746;2023-05-07T06:23:09;2.63;;;1.40;;
78985;SDS011;68384;55.750;48.746;2023-05-07T06:24:13;3.25;;;1.60;;
78985;SDS011;68384;55.750;48.746;2023-05-07T06:25:16;3.55;;;1.58;;
78985;SDS011;68384;55.750;48.746;2023-05-07T06:26:20;2.65;;;1.38;;
78985;SDS011;68384;55.750;48.746;2023-05-07T06:27:23;2.65;;;1.70;;
78985;SDS011;68384;55.750;48.746;2023-05-07T06:28:28;2.30;;;1.58;;
78985;SDS011;68384;55.750;48.746;2023-05-07T06:29:40;3.13;;;1.42;;
78985;SDS011;68384;55.750;48.746;2023-05-07T06:30:48;2.53;;;1.50;;
78985;SDS011;68384;55.750;48.746;2023-05-07T06:32:57;2.38;;;1.45;;
78985;SDS011;68384;55.750;48.746;2023-05-07T06:34:01;3.10;;;1.73;;
78985;SDS011;68384;55.750;48.746;2023-05-07T06:35:11;2.80;;;1.80;;
78985;SDS011;68384;55.750;48.746;2023-05-07T06:36:15;3.47;;;1.40;;
78985;SDS011;68384;55.750;48.746;2023-05-07T06:37:19;2.00;;;1.10;;
78985;SDS011;68384;55.750;48.746;2023-05-07T06:38:33;2.38;;;1.30;;
78985;SDS011;68384;55.750;48.746;2023-05-07T06:39:36;3.13;;;2.00;;